• Join FlightAware (Why Join?)
  • Login
  • US Flag 
08:33AM EDT


 

Airport Tracker/Info


-or-


 

Live Flight TrackerFlight Track Log ✈ N654DL ✈ 21-Apr-2013 ✈ KATL - KMIA

Flight Track Log - Related Links

Times and Time Zones

All times are in EDT time to prevent confusion due to time zone crossing. See the N654DL flight status page for this flight to view local times or setup timezone preferences in your user account.

Time Position Orientation Groundspeed Altitude Reporting Facility
EDT Latitude Longitude Course Direction KTS MPH feet Rate Location/Type
04:26PM 33.6167 -84.3500 179° South 210 242 3,800  Level Atlanta TRACON
04:27PM 33.5833 -84.2833 121° Southeast 263 303 6,600 2,400 Climbing Atlanta TRACON
04:28PM 33.3849 -84.2857 194° South  Level FlightAware Approximate
04:29PM 33.2712 -84.3190 194° South  Level FlightAware Approximate
04:29PM 33.4328 -84.3003 185° South 291 335 11,100  Level Atlanta Center
04:30PM 33.1575 -84.3521 194° South  Level FlightAware Approximate
04:30PM 33.3514 -84.3222 193° South 315 362 12,600  Level Atlanta Center
04:31PM 33.0435 -84.3833 180° South  Level FlightAware Approximate
04:31PM 33.2533 -84.3469 192° South 347 399 15,400  Level Atlanta Center
04:32PM 32.9310 -84.4162 179° South  Level FlightAware Approximate
04:32PM 33.1550 -84.3739 193° South 369 425 17,900  Level Atlanta Center
04:33PM 33.0486 -84.4006 192° South 380 437 20,000 2,940 Climbing Atlanta Center
04:34PM 32.9483 -84.4200 189° South 380 437 23,800 2,640 Climbing Atlanta Center
04:35PM 32.8336 -84.4219 181° South 375 432 25,300 1,260 Climbing Atlanta Center
04:36PM 32.7311 -84.4217 180° South 385 443 26,400 1,200 Climbing Atlanta Center
04:37PM 32.6144 -84.4186 179° South 404 465 27,800 1,440 Climbing Atlanta Center
04:38PM 32.4975 -84.4156 179° South 415 478 29,300 1,500 Climbing Atlanta Center
04:39PM 32.3806 -84.4128 179° South 420 483 30,900 1,500 Climbing Atlanta Center
04:40PM 32.2636 -84.4097 179° South 420 483 32,400 1,320 Climbing Atlanta Center
04:41PM 32.1489 -84.4069 179° South 420 483 33,600 1,260 Climbing Atlanta Center
04:42PM 32.0136 -84.4019 178° South 420 483 35,100 1,080 Climbing Jacksonville Center
04:43PM 31.9008 -84.4025 180° South 414 476 35,900 720 Climbing Jacksonville Center
04:44PM 31.7817 -84.3981 178° South 414 476 36,600 540 Climbing Jacksonville Center
04:45PM 31.6628 -84.3961 179° South 419 482 37,000 180 Climbing Jacksonville Center
04:46PM 31.5458 -84.3942 179° South 419 482 37,000  Level Jacksonville Center
04:47PM 31.4289 -84.3925 179° South 419 482 37,000  Level Jacksonville Center
04:48PM 31.3081 -84.3906 179° South 424 488 37,000  Level Jacksonville Center
04:49PM 31.1869 -84.3861 178° South 424 488 37,000  Level Jacksonville Center
04:50PM 31.0700 -84.3842 179° South 424 488 37,000  Level Jacksonville Center
04:51PM 30.9469 -84.3797 178° South 424 488 37,000  Level Jacksonville Center
04:52PM 30.8278 -84.3803 180° South 429 494 37,000  Level Jacksonville Center
04:53PM 30.7114 -84.3375 162° South 436 502 37,000  Level Jacksonville Center
04:54PM 30.6481 -84.1989 118° Southeast 414 476 37,000  Level Jacksonville Center
04:55PM 30.6311 -84.0225 96° East 450 518 37,000  Level Jacksonville Center
04:56PM 30.6158 -83.8508 96° East 488 562 37,000  Level Jacksonville Center
04:57PM 30.5961 -83.6769 97° East 513 590 37,000  Level Jacksonville Center
04:58PM 30.5803 -83.5078 96° East 527 606 37,000  Level Jacksonville Center
04:59PM 30.5600 -83.3364 98° East 532 612 37,000  Level Jacksonville Center
05:00PM 30.5439 -83.1844 97° East 532 612 37,000  Level Jacksonville Center
05:01PM 30.5233 -83.0108 98° East 532 612 37,000 -480 Level Jacksonville Center
05:02PM 30.5025 -82.8419 98° East 532 612 36,100 -540 Descending Jacksonville Center
05:03PM 30.4814 -82.6733 98° East 532 612 36,000 -60 Descending Jacksonville Center
05:04PM 30.4600 -82.5069 98° East 532 612 36,000  Level Jacksonville Center
05:05PM 30.4406 -82.3383 98° East 527 606 36,000  Level Jacksonville Center
05:06PM 30.4211 -82.1675 97° East 527 606 36,000  Level Jacksonville Center
05:07PM 30.3992 -81.9992 99° East 527 606 36,000  Level Jacksonville Center
05:08PM 30.3769 -81.8283 99° East 527 606 36,000  Level Jacksonville Center
05:09PM 30.3564 -81.6456 97° East 527 606 36,000  Level Jacksonville Center
05:10PM 30.2967 -81.5044 116° Southeast 499 574 36,000  Level Jacksonville Center
05:11PM 30.1831 -81.4483 157° South 416 479 36,000  Level Jacksonville Center
05:12PM 30.0658 -81.4044 162° South 421 484 36,000  Level Jacksonville Center
05:13PM 29.9483 -81.3608 162° South 432 497 36,000  Level Jacksonville Center
05:14PM 29.8308 -81.3147 161° South 443 510 36,000  Level Jacksonville Center
05:15PM 29.7133 -81.2714 162° South 443 510 36,000  Level Jacksonville Center
05:16PM 29.5939 -81.2278 162° South 443 510 36,000  Level Jacksonville Center
05:17PM 29.4764 -81.1797 160° South 443 510 36,000  Level Jacksonville Center
05:18PM 29.3714 -81.1386 161° South 443 510 36,000  Level Jacksonville Center
05:19PM 29.2497 -81.0933 162° South 455 524 36,000  Level Jacksonville Center
05:20PM 29.1278 -81.0408 159° South 461 531 36,000  Level Jacksonville Center
05:22PM 28.9017 -80.9531 161° South 475 547 36,000  Level Miami Center
05:23PM 28.7758 -80.9033 161° South 474 545 36,000  Level Miami Center
05:24PM 28.6519 -80.8542 161° South 474 545 36,000  Level Miami Center
05:25PM 28.5261 -80.8047 161° South 490 564 36,000  Level Miami Center
05:26PM 28.4072 -80.7272 150° Southeast 490 564 36,000  Level Miami Center
05:27PM 28.3206 -80.6086 130° Southeast 507 583 36,000  Level Miami Center
05:28PM 28.2319 -80.4833 129° Southeast 512 589 36,000  Level Miami Center
05:29PM 28.1347 -80.3600 132° Southeast 519 597 36,000  Level Miami Center
05:30PM 28.0167 -80.2389 138° Southeast 514 592 36,000  Level Miami Center
05:31PM 27.9106 -80.1347 139° Southeast 506 582 36,000  Level Miami Center
05:32PM 27.8125 -80.0428 140° Southeast 506 582 36,000 -360 Level Miami Center
05:33PM 27.7061 -79.9411 140° Southeast 506 582 35,300 -1,020 Descending Miami Center
05:34PM 27.5917 -79.8256 138° Southeast 506 582 34,000 -840 Descending Miami Center
05:35PM 27.4831 -79.7222 140° Southeast 506 582 33,700 -720 Descending Miami Center
05:36PM 27.3764 -79.6189 139° Southeast 506 582 32,600 -1,980 Descending Miami Center
05:37PM 27.2819 -79.5303 140° Southeast 506 582 29,800 -2,760 Descending Miami Center
05:38PM 27.1792 -79.4367 141° Southeast 493 567 27,100 -2,280 Descending Miami Center
05:39PM 27.0519 -79.4317 178° South 416 479 25,300 -2,040 Descending Miami Center
05:40PM 26.9408 -79.4617 194° South 402 463 23,100 -1,920 Descending Miami Center
05:41PM 26.8419 -79.4944 196° South 402 463 21,500 -1,680 Descending Miami Center
05:42PM 26.7328 -79.5247 194° South 397 457 19,800 -1,500 Descending Miami Center
05:43PM 26.6339 -79.5619 199° South 391 450 18,500 -1,620 Descending Miami Center
05:44PM 26.5431 -79.6156 208° Southwest 377 434 16,600 -1,680 Descending Miami Center
05:44PM 26.5153 -79.6475 226° Southwest 352 405 16,100 -600 Descending Miami Center
05:45PM 26.4853 -79.6978 236° Southwest 345 397 16,000 -120 Descending Miami Center
05:46PM 26.4247 -79.8031 237° Southwest 354 407 16,000  Level Miami Center
05:47PM 26.3731 -79.8783 233° Southwest 347 399 16,000 -540 Level Miami Center
05:48PM 26.2864 -79.9247 206° Southwest 346 398 15,000 -1,020 Descending Miami Center
05:49PM 26.2017 -79.9711 206° Southwest 346 398 14,000 -540 Descending Miami Center
05:50PM 26.1067 -80.0242 207° Southwest 350 403 14,000  Level Miami Center
05:51PM 26.0075 -80.0725 204° Southwest 348 400 14,000 -540 Level Miami Center
05:52PM 25.9500 -80.1217 218° Southwest 346 398 13,000 -1,800 Descending Miami Center
05:53PM 25.9333 -80.2136 259° West 291 335 10,700 -2,340 Descending Miami Center
05:54PM 25.9269 -80.3036 266° West 286 329 8,400 -2,160 Descending Miami Center
05:55PM 25.9475 -80.4033 283° West 262 302 5,900 -1,920 Descending Miami Center
05:56PM 25.9561 -80.4822 277° West 250 288 4,100 -1,080 Descending Miami Center
05:57PM 25.9217 -80.5228 227° Southwest 219 252 3,900 -600 Descending Miami Center
05:58PM 25.8872 -80.4803 132° Southeast 178 205 3,000 -900 Descending Miami Center